• Join FlightAware (Why Join?)
  • Login
  • US Flag 
12:22AM EDT


 

Airport Tracker/Info


-or-


 

Live Flight TrackerFlight Track Log ✈ SWA4166 ✈ 04-Jan-2014 ✈ KDEN - KSMF

Flight Track Log - Related Links

Times and Time Zones

All times are in EST time to prevent confusion due to time zone crossing. See the SWA4166 flight status page for this flight to view local times or setup timezone preferences in your user account.

Time Position Orientation Groundspeed Altitude Reporting Facility
EST Latitude Longitude Course Direction KTS MPH feet Rate Location/Type
12:47AM 39.8667 -104.8000 270° West 230 265 7,700  Level Denver TRACON
12:48AM 39.9000 -104.8833 298° West 265 305 10,200 2,040 Climbing Denver TRACON
12:49AM 39.9000 -104.9833 270° West 317 365 11,700 2,040 Climbing Denver TRACON
12:50AM 39.9086 -105.0319 283° West 326 375 13,100 2,580 Climbing Denver Center
12:51AM 39.9208 -105.1578 277° West 350 403 15,700 2,760 Climbing Denver Center
12:52AM 39.8626 -105.3801 281° West  Level Estimated
12:52AM 39.9350 -105.2978 278° West 360 414 18,800  Level Denver Center
12:53AM 39.8623 -105.5214 270° West  Level Estimated
12:53AM 39.9489 -105.4308 278° West 368 423 21,200  Level Denver Center
12:54AM 39.9631 -105.5672 278° West 380 437 23,100 1,680 Climbing Denver Center
12:55AM 39.9739 -105.7094 276° West 397 457 24,700 1,380 Climbing Denver Center
12:56AM 39.9697 -105.8553 268° West 400 460 26,000 840 Climbing Denver Center
12:57AM 39.9769 -106.0006 274° West 402 463 26,500 840 Climbing Denver Center
12:58AM 39.9864 -106.1475 275° West 407 468 27,800 1,140 Climbing Denver Center
12:59AM 39.9950 -106.2997 274° West 419 482 28,900 1,440 Climbing Denver Center
01:00AM 40.0022 -106.4533 274° West 425 489 30,800 1,740 Climbing Denver Center
01:01AM 40.0097 -106.5975 274° West 417 480 32,500 1,620 Climbing Denver Center
01:02AM 40.0181 -106.7606 274° West 405 466 34,200 1,320 Climbing Denver Center
01:03AM 40.0253 -106.9003 274° West 404 465 35,300 840 Climbing Denver Center
01:04AM 40.0328 -107.0633 273° West 404 465 36,000 300 Climbing Denver Center
01:05AM 40.0464 -107.2022 277° West 405 466 36,000  Level Denver Center
01:06AM 40.0719 -107.3344 284° West 395 455 36,000  Level Denver Center
01:07AM 40.1011 -107.4925 284° West 401 461 36,000  Level Denver Center
01:08AM 40.1267 -107.6253 284° West 397 457 36,000  Level Denver Center
01:09AM 40.1553 -107.7814 284° West 397 457 36,000  Level Denver Center
01:10AM 40.1800 -107.9147 284° West 396 456 36,000  Level Denver Center
01:11AM 40.2047 -108.0481 284° West 396 456 36,000  Level Denver Center
01:12AM 40.2319 -108.2033 283° West 394 453 36,000  Level Denver Center
01:13AM 40.2567 -108.3367 284° West 395 455 36,000  Level Denver Center
01:14AM 40.2797 -108.4697 283° West 394 453 36,000  Level Denver Center
01:15AM 40.3072 -108.6233 283° West 390 449 36,000  Level Denver Center
01:16AM 40.3303 -108.7547 283° West 389 448 36,000  Level Denver Center
01:17AM 40.3539 -108.8858 283° West 388 447 36,000  Level Denver Center
01:18AM 40.3803 -109.0381 283° West 385 443 36,000  Level Salt Lake Center
01:19AM 40.4022 -109.1667 283° West 380 437 36,000  Level Salt Lake Center
01:20AM 40.4281 -109.3158 283° West 377 434 36,000  Level Salt Lake Center
01:21AM 40.4492 -109.4447 282° West 377 434 36,000  Level Salt Lake Center
01:22AM 40.4753 -109.5917 283° West 372 428 36,000  Level Salt Lake Center
01:23AM 40.4950 -109.7169 282° West 368 423 36,000 240 Level Salt Lake Center
01:24AM 40.5169 -109.8419 283° West 367 422 36,600 780 Climbing Salt Lake Center
01:25AM 40.5414 -109.9900 282° West 373 429 37,600 660 Climbing Salt Lake Center
01:26AM 40.5617 -110.1181 282° West 374 430 38,000 180 Climbing Salt Lake Center
01:27AM 40.5861 -110.2647 282° West 376 433 38,000 -840 Level Salt Lake Center
01:28AM 40.6069 -110.3903 282° West 369 425 36,300 -1,020 Descending Salt Lake Center
01:29AM 40.6253 -110.5075 282° West 348 400 36,000 -180 Descending Salt Lake Center
01:30AM 40.6450 -110.6306 282° West 349 402 36,000  Level Salt Lake Center
01:31AM 40.6650 -110.7569 282° West 354 407 36,000  Level Salt Lake Center
01:32AM 40.6847 -110.8839 282° West 354 407 36,000  Level Salt Lake Center
01:33AM 40.7056 -111.0133 282° West 360 414 36,000  Level Salt Lake Center
01:34AM 40.7289 -111.1636 282° West 352 405 36,000  Level Salt Lake Center
01:35AM 40.7331 -111.2928 272° West 356 410 36,000  Level Salt Lake Center
01:36AM 40.7161 -111.4311 261° West 378 435 36,000  Level Salt Lake Center
01:37AM 40.6986 -111.5686 261° West 378 435 36,000  Level Salt Lake Center
01:38AM 40.6797 -111.7061 260° West 380 437 36,000  Level Salt Lake Center
01:39AM 40.6611 -111.8422 260° West 375 432 36,000  Level Salt Lake Center
01:40AM 40.6419 -111.9792 260° West 379 436 36,000  Level Salt Lake Center
01:41AM 40.6233 -112.1167 260° West 381 438 36,000  Level Salt Lake Center
01:42AM 40.6039 -112.2561 260° West 386 444 36,000  Level Salt Lake Center
01:43AM 40.5842 -112.3931 259° West 381 438 36,000  Level Salt Lake Center
01:44AM 40.5656 -112.5303 260° West 381 438 36,000  Level Salt Lake Center
01:45AM 40.5461 -112.6672 259° West 382 440 36,000  Level Salt Lake Center
01:46AM 40.5267 -112.8047 260° West 384 442 36,000  Level Salt Lake Center
01:47AM 40.5067 -112.9444 259° West 388 447 36,000  Level Salt Lake Center
01:48AM 40.4839 -113.0825 258° West 387 445 36,000  Level Salt Lake Center
01:50AM 40.4631 -113.2231 259° West 392 451 36,000  Level Salt Lake Center
01:51AM 40.4428 -113.3656 259° West 397 457 36,000  Level Salt Lake Center
01:52AM 40.4214 -113.5075 259° West 397 457 36,000  Level Salt Lake Center
01:53AM 40.3992 -113.6497 258° West 398 458 36,000  Level Salt Lake Center
01:54AM 40.3742 -113.8222 259° West 401 461 36,000  Level Salt Lake Center
01:55AM 40.3508 -113.9653 258° West 402 463 36,000  Level Salt Lake Center
01:56AM 40.3294 -114.1072 259° West 399 459 36,000  Level Salt Lake Center
01:57AM 40.3067 -114.2492 258° West 399 459 36,000  Level Salt Lake Center
01:58AM 40.2842 -114.3933 258° West 404 465 36,000  Level Salt Lake Center
01:59AM 40.2608 -114.5364 258° West 404 465 36,000  Level Salt Lake Center
02:00AM 40.2372 -114.6792 258° West 403 464 36,000  Level Salt Lake Center
02:01AM 40.2144 -114.8225 258° West 405 466 36,000  Level Salt Lake Center
02:02AM 40.1914 -114.9614 258° West 407 468 36,000  Level Salt Lake Center
02:03AM 40.1653 -115.1214 258° West 405 466 36,000  Level Salt Lake Center
02:04AM 40.1419 -115.2639 258° West 415 478 36,000  Level Salt Lake Center
02:05AM 40.1178 -115.4022 257° West 409 471 36,000  Level Salt Lake Center
02:06AM 40.0906 -115.5658 258° West 411 473 36,000  Level Salt Lake Center
02:07AM 40.0669 -115.7067 258° West 413 475 36,000  Level Salt Lake Center
02:08AM 40.0419 -115.8497 257° West 418 481 36,000  Level Salt Lake Center
02:09AM 40.0128 -116.0153 257° West 418 481 36,000  Level Salt Lake Center
02:10AM 39.9850 -116.1586 256° West 422 486 36,000  Level Salt Lake Center
02:11AM 39.9597 -116.3011 257° West 419 482 36,000  Level Salt Lake Center
02:12AM 39.9353 -116.4433 257° West 418 481 36,000  Level Salt Lake Center
02:13AM 39.9050 -116.6089 257° West 418 481 36,000  Level Salt Lake Center
02:14AM 39.8783 -116.7517 256° West 421 484 36,000  Level Salt Lake Center
02:15AM 39.8525 -116.8953 257° West 422 486 36,000  Level Salt Lake Center
02:16AM 39.8219 -117.0622 257° West 422 486 36,000  Level Salt Lake Center
02:17AM 39.7950 -117.2047 256° West 422 486 36,000  Level Salt Lake Center
02:18AM 39.7681 -117.3475 256° West 423 487 36,000  Level Salt Lake Center
02:19AM 39.7417 -117.4903 257° West 424 488 36,000  Level Salt Lake Center
02:20AM 39.7144 -117.6372 257° West 425 489 36,000  Level Salt Lake Center
02:21AM 39.6858 -117.7850 256° West 423 487 36,000  Level Salt Lake Center
02:22AM 39.6569 -117.9339 256° West 425 489 36,000  Level Salt Lake Center
02:23AM 39.6225 -118.1144 256° West 429 494 36,000  Level Oakland Center
02:24AM 39.5936 -118.2628 256° West 427 491 36,000  Level Oakland Center
02:25AM 39.5642 -118.4122 256° West 431 496 36,000  Level Oakland Center
02:26AM 39.5353 -118.5600 256° West 428 493 36,000  Level Oakland Center
02:27AM 39.5058 -118.7069 255° West 430 495 36,000  Level Oakland Center
02:28AM 39.4767 -118.8508 255° West 428 493 36,000  Level Oakland Center
02:29AM 39.4461 -118.9978 255° West 433 498 36,000  Level Oakland Center
02:30AM 39.4150 -119.1486 255° West 433 498 36,000 -180 Level Oakland Center
02:31AM 39.3853 -119.3003 256° West 436 502 35,700 -780 Descending Oakland Center
02:32AM 39.3533 -119.4486 254° West 431 496 34,500 -2,040 Descending Oakland Center
02:33AM 39.3231 -119.5975 255° West 430 495 31,700 -2,760 Descending Oakland Center
02:34AM 39.2847 -119.7739 254° West 424 488 29,000 -2,400 Descending Oakland Center
02:35AM 39.2558 -119.9136 255° West 407 468 26,900 -2,040 Descending Oakland Center
02:36AM 39.2278 -120.0489 255° West 394 453 24,900 -2,040 Descending Oakland Center
02:37AM 39.2031 -120.1619 254° West 378 435 22,800 -2,040 Descending Oakland Center
02:38AM 39.1747 -120.2961 255° West 384 442 20,900 -1,800 Descending Oakland Center
02:39AM 39.1425 -120.4261 252° West 384 442 19,200 -1,800 Descending Oakland Center
02:40AM 39.1086 -120.5525 251° West 377 434 17,300 -1,980 Descending Oakland Center
02:41AM 39.0767 -120.6747 251° West 366 421 15,300 -2,040 Descending Oakland Center
02:42AM 39.0461 -120.7950 252° West 357 411 13,300 -1,980 Descending Oakland Center
02:43AM 39.0153 -120.9133 251° West 352 405 11,400 -1,620 Descending Oakland Center
02:44AM 38.9797 -121.0486 251° West 337 388 10,100 -720 Descending Oakland Center
02:45AM 38.9511 -121.1617 252° West 334 384 10,000 -120 Descending Oakland Center
02:46AM 38.9208 -121.2744 251° West 338 389 9,900 -300 Descending Oakland Center
02:47AM 38.9000 -121.3333 246° West 292 336 9,600 -1,080 Descending Northern Cal TRACON
02:48AM 38.8833 -121.4167 256° West 285 328 8,400 -1,320 Descending Northern Cal TRACON
02:49AM 38.8500 -121.5167 247° West 279 321 7,200 -1,260 Descending Northern Cal TRACON
02:50AM 38.8167 -121.6000 243° Southwest 272 313 5,900 -1,200 Descending Northern Cal TRACON
02:51AM 38.7500 -121.6500 210° Southwest 272 313 4,700 -1,380 Descending Northern Cal TRACON
02:52AM 38.6667 -121.6667 189° South 249 287 3,100 -1,320 Descending Northern Cal TRACON
02:53AM 38.6167 -121.6833 195° South 223 257 2,300 -960 Descending Northern Cal TRACON
02:53AM 38.5883 -121.6900 190° South 228 262 1,700 -540 Descending Oakland Center
02:54AM 38.5875 -121.6308 91° East 192 221 1,500 -300 Descending Oakland Center
02:55AM 38.6247 -121.6031 30° Northeast 162 186 1,100 -600 Descending Oakland Center
02:56AM 38.6672 -121.6017 North 153 176 300 -540 Descending Oakland Center
02:57AM 38.7081 -121.6014 360° North 153 176 100 -240 Descending Oakland Center